Observation data for Wolfforth on 05/24/2020      Previous  Date  Next       Current Mesonet Observations  Soil Data  Daily Summary Page  Observations in Plain Language
KWOS 240500Z 16013KT 19/15 A2986 RMK A01 T01880145  RH  080%=      5-min Rain = 0
KWOS 240505Z 16012KT 19/15 A2986 RMK A01 T01870145  RH  080%=      5-min Rain = 0
KWOS 240510Z 16012G18KT 19/14 A2986 RMK A01 T01850144  RH  080%=      5-min Rain = 0
KWOS 240515Z 16012KT 18/14 A2986 RMK A01 T01840143  RH  081%=      5-min Rain = 0
KWOS 240520Z 15012KT 18/14 A2986 RMK A01 T01820144  RH  082%=      5-min Rain = 0
KWOS 240525Z 15012KT 18/14 A2987 RMK A01 T01820144  RH  082%=      5-min Rain = 0
KWOS 240530Z 15011KT 18/14 A2987 RMK A01 T01800144  RH  083%=      5-min Rain = 0
KWOS 240535Z 15011KT 18/14 A2987 RMK A01 T01790144  RH  083%=      5-min Rain = 0
KWOS 240540Z 15011KT 18/14 A2988 RMK A01 T01790144  RH  084%=      5-min Rain = 0
KWOS 240545Z 15011KT 18/15 A2988 RMK A01 T01780145  RH  084%=      5-min Rain = 0
KWOS 240550Z 15010KT 18/14 A2988 RMK A01 T01780144  RH  084%=      5-min Rain = 0
KWOS 240555Z 15009KT 18/15 A2989 RMK A01 T01760145  RH  086%=      5-min Rain = 0
KWOS 240600Z 16009KT 18/15 A2988 RMK A01 T01760145  RH  086%=      5-min Rain = 0
KWOS 240605Z 14011KT 18/14 A2988 RMK A01 T01770144  RH  085%=      5-min Rain = 0
KWOS 240610Z 16008KT 18/14 A2989 RMK A01 T01770144  RH  085%=      5-min Rain = 0
KWOS 240615Z 14008KT 18/14 A2988 RMK A01 T01760144  RH  085%=      5-min Rain = 0
KWOS 240620Z 18008KT 18/14 A2988 RMK A01 T01760144  RH  085%=      5-min Rain = 0
KWOS 240625Z 16009KT 18/14 A2988 RMK A01 T01760143  RH  085%=      5-min Rain = 0
KWOS 240630Z 16010KT 18/14 A2988 RMK A01 T01750142  RH  084%=      5-min Rain = 0
KWOS 240635Z 15011KT 17/14 A2988 RMK A01 T01740142  RH  085%=      5-min Rain = 0
KWOS 240640Z 16011KT 17/14 A2988 RMK A01 T01740141  RH  084%=      5-min Rain = 0
KWOS 240645Z 15011KT 17/14 A2988 RMK A01 T01720140  RH  085%=      5-min Rain = 0
KWOS 240650Z 15012KT 17/14 A2988 RMK A01 T01710140  RH  086%=      5-min Rain = 0
KWOS 240655Z 15011KT 17/14 A2988 RMK A01 T01690140  RH  087%=      5-min Rain = 0
KWOS 240700Z 15012KT 17/14 A2987 RMK A01 T01670140  RH  087%=      5-min Rain = 0
KWOS 240705Z 15011KT 17/14 A2987 RMK A01 T01660138  RH  087%=      5-min Rain = 0
KWOS 240710Z 16011KT 17/14 A2987 RMK A01 T01660137  RH  087%=      5-min Rain = 0
KWOS 240715Z 16011KT 17/14 A2987 RMK A01 T01650135  RH  086%=      5-min Rain = 0
KWOS 240720Z 15010KT 17/13 A2987 RMK A01 T01650134  RH  085%=      5-min Rain = 0
KWOS 240725Z 15009KT 16/13 A2987 RMK A01 T01630133  RH  086%=      5-min Rain = 0
KWOS 240730Z 15008KT 16/13 A2987 RMK A01 T01620133  RH  086%=      5-min Rain = 0
KWOS 240735Z 15009KT 16/13 A2987 RMK A01 T01610134  RH  087%=      5-min Rain = 0
KWOS 240740Z 15009KT 16/13 A2987 RMK A01 T01600133  RH  087%=      5-min Rain = 0
KWOS 240745Z 15010KT 16/13 A2987 RMK A01 T01600132  RH  087%=      5-min Rain = 0
KWOS 240750Z 15009KT 16/13 A2987 RMK A01 T01600132  RH  087%=      5-min Rain = 0
KWOS 240755Z 15009KT 16/13 A2987 RMK A01 T01590131  RH  087%=      5-min Rain = 0
KWOS 240800Z 15009KT 16/13 A2987 RMK A01 T01590130  RH  087%=      5-min Rain = 0
KWOS 240805Z 15008KT 16/13 A2987 RMK A01 T01580131  RH  087%=      5-min Rain = 0
KWOS 240810Z 15009KT 16/13 A2987 RMK A01 T01580130  RH  087%=      5-min Rain = 0
KWOS 240815Z 15009KT 16/13 A2987 RMK A01 T01580129  RH  086%=      5-min Rain = 0
KWOS 240820Z 15010KT 16/13 A2986 RMK A01 T01580128  RH  086%=      5-min Rain = 0
KWOS 240825Z 15009KT 16/13 A2986 RMK A01 T01570129  RH  086%=      5-min Rain = 0
KWOS 240830Z 15008KT 16/13 A2986 RMK A01 T01570129  RH  087%=      5-min Rain = 0
KWOS 240835Z 15008KT 16/13 A2986 RMK A01 T01570128  RH  087%=      5-min Rain = 0
KWOS 240840Z 16008KT 16/13 A2986 RMK A01 T01570127  RH  086%=      5-min Rain = 0
KWOS 240845Z 15008KT 16/13 A2986 RMK A01 T01570127  RH  086%=      5-min Rain = 0
KWOS 240850Z 16008KT 16/13 A2986 RMK A01 T01570127  RH  085%=      5-min Rain = 0
KWOS 240855Z 16008KT 16/13 A2986 RMK A01 T01570127  RH  086%=      5-min Rain = 0
KWOS 240900Z 15008KT 16/13 A2986 RMK A01 T01560127  RH  086%=      5-min Rain = 0
KWOS 240905Z 15008KT 16/13 A2986 RMK A01 T01560127  RH  086%=      5-min Rain = 0
KWOS 240910Z 15008KT 16/13 A2986 RMK A01 T01560127  RH  086%=      5-min Rain = 0
KWOS 240915Z 15008KT 16/13 A2986 RMK A01 T01560127  RH  086%=      5-min Rain = 0
KWOS 240920Z 15008KT 16/13 A2986 RMK A01 T01560126  RH  086%=      5-min Rain = 0
KWOS 240925Z 15009KT 16/13 A2986 RMK A01 T01570126  RH  085%=      5-min Rain = 0
KWOS 240930Z 14009KT 16/13 A2986 RMK A01 T01560126  RH  085%=      5-min Rain = 0
KWOS 240935Z 14009KT 16/13 A2986 RMK A01 T01570125  RH  085%=      5-min Rain = 0
KWOS 240940Z 15009KT 16/13 A2986 RMK A01 T01570125  RH  085%=      5-min Rain = 0
KWOS 240945Z 15010KT 16/13 A2986 RMK A01 T01570125  RH  084%=      5-min Rain = 0
KWOS 240950Z 15010KT 16/12 A2986 RMK A01 T01570124  RH  084%=      5-min Rain = 0
KWOS 240955Z 15011KT 16/12 A2986 RMK A01 T01580123  RH  083%=      5-min Rain = 0
KWOS 241000Z 15010KT 16/12 A2986 RMK A01 T01570123  RH  083%=      5-min Rain = 0
KWOS 241005Z 15011KT 16/12 A2986 RMK A01 T01560124  RH  084%=      5-min Rain = 0
KWOS 241010Z 14010KT 16/12 A2986 RMK A01 T01550124  RH  085%=      5-min Rain = 0
KWOS 241015Z 15010KT 15/12 A2986 RMK A01 T01540124  RH  085%=      5-min Rain = 0
KWOS 241020Z 15010KT 15/12 A2986 RMK A01 T01540124  RH  086%=      5-min Rain = 0
KWOS 241025Z 15009KT 15/12 A2986 RMK A01 T01540124  RH  085%=      5-min Rain = 0
KWOS 241030Z 15009KT 15/12 A2986 RMK A01 T01540124  RH  086%=      5-min Rain = 0
KWOS 241035Z 15009KT 15/13 A2986 RMK A01 T01540125  RH  086%=      5-min Rain = 0
KWOS 241040Z 16009KT 16/13 A2986 RMK A01 T01560125  RH  085%=      5-min Rain = 0
KWOS 241045Z 16009KT 16/12 A2986 RMK A01 T01590123  RH  082%=      5-min Rain = 0
KWOS 241050Z 17010KT 16/12 A2986 RMK A01 T01610123  RH  081%=      5-min Rain = 0
KWOS 241055Z 17010KT 16/12 A2986 RMK A01 T01630122  RH  080%=      5-min Rain = 0
KWOS 241100Z 17009KT 16/12 A2986 RMK A01 T01620123  RH  080%=      5-min Rain = 0
KWOS 241105Z 17009KT 16/12 A2986 RMK A01 T01620123  RH  081%=      5-min Rain = 0
KWOS 241110Z 17008KT 16/12 A2987 RMK A01 T01620123  RH  081%=      5-min Rain = 0
KWOS 241115Z 17007KT 16/12 A2987 RMK A01 T01610123  RH  081%=      5-min Rain = 0
KWOS 241120Z 17007KT 16/12 A2987 RMK A01 T01600123  RH  082%=      5-min Rain = 0
KWOS 241125Z 16006KT 16/12 A2987 RMK A01 T01600123  RH  082%=      5-min Rain = 0
KWOS 241130Z 17006KT 16/12 A2986 RMK A01 T01600123  RH  082%=      5-min Rain = 0
KWOS 241135Z 17006KT 16/12 A2986 RMK A01 T01600123  RH  082%=      5-min Rain = 0
KWOS 241140Z 17007KT 16/12 A2987 RMK A01 T01600123  RH  082%=      5-min Rain = 0
KWOS 241145Z 17007KT 16/12 A2986 RMK A01 T01610123  RH  081%=      5-min Rain = 0
KWOS 241150Z 17007KT 16/12 A2987 RMK A01 T01600123  RH  081%=      5-min Rain = 0
KWOS 241155Z 17007KT 16/12 A2987 RMK A01 T01600123  RH  082%=      5-min Rain = 0
KWOS 241200Z 17008KT 16/12 A2987 RMK A01 T01600123  RH  082%=      5-min Rain = 0
KWOS 241205Z 17008KT 16/12 A2987 RMK A01 T01610123  RH  081%=      5-min Rain = 0
KWOS 241210Z 17008KT 16/12 A2986 RMK A01 T01610123  RH  081%=      5-min Rain = 0
KWOS 241215Z 17009KT 16/12 A2986 RMK A01 T01620123  RH  081%=      5-min Rain = 0
KWOS 241220Z 17008KT 16/12 A2986 RMK A01 T01620123  RH  081%=      5-min Rain = 0
KWOS 241225Z 17009KT 16/12 A2987 RMK A01 T01620124  RH  081%=      5-min Rain = 0
KWOS 241230Z 17008KT 16/12 A2986 RMK A01 T01620124  RH  081%=      5-min Rain = 0
KWOS 241235Z 16008KT 16/13 A2987 RMK A01 T01630125  RH  081%=      5-min Rain = 0
KWOS 241240Z 16008KT 16/13 A2987 RMK A01 T01640126  RH  081%=      5-min Rain = 0
KWOS 241245Z 16008KT 17/13 A2987 RMK A01 T01650127  RH  081%=      5-min Rain = 0
KWOS 241250Z 16009KT 17/13 A2987 RMK A01 T01660128  RH  081%=      5-min Rain = 0
KWOS 241255Z 16009KT 17/13 A2987 RMK A01 T01680129  RH  081%=      5-min Rain = 0
KWOS 241300Z 16010KT 17/13 A2987 RMK A01 T01690129  RH  080%=      5-min Rain = 0
KWOS 241305Z 17010G15KT 17/13 A2986 RMK A01 T01710129  RH  079%=      5-min Rain = 0
KWOS 241310Z 17011KT 17/13 A2986 RMK A01 T01730129  RH  079%=      5-min Rain = 0
KWOS 241315Z 17012KT 17/13 A2986 RMK A01 T01740130  RH  078%=      5-min Rain = 0
KWOS 241320Z 17012KT 18/13 A2986 RMK A01 T01750131  RH  078%=      5-min Rain = 0
KWOS 241325Z 17011KT 18/13 A2986 RMK A01 T01770133  RH  079%=      5-min Rain = 0
KWOS 241330Z 17013KT 18/13 A2986 RMK A01 T01780133  RH  078%=      5-min Rain = 0
KWOS 241335Z 17012KT 18/13 A2986 RMK A01 T01800134  RH  078%=      5-min Rain = 0
KWOS 241340Z 17012KT 18/14 A2986 RMK A01 T01810136  RH  078%=      5-min Rain = 0
KWOS 241345Z 17010KT 18/14 A2987 RMK A01 T01830137  RH  078%=      5-min Rain = 0
KWOS 241350Z 17010KT 18/14 A2987 RMK A01 T01840138  RH  078%=      5-min Rain = 0
KWOS 241355Z 16010KT 19/14 A2987 RMK A01 T01860140  RH  078%=      5-min Rain = 0
KWOS 241400Z 16012KT 19/14 A2987 RMK A01 T01870139  RH  077%=      5-min Rain = 0
KWOS 241405Z 17012KT 19/14 A2987 RMK A01 T01880139  RH  077%=      5-min Rain = 0
KWOS 241410Z 17012G17KT 19/14 A2987 RMK A01 T01900141  RH  077%=      5-min Rain = 0
KWOS 241415Z 17012KT 19/14 A2988 RMK A01 T01900141  RH  076%=      5-min Rain = 0
KWOS 241420Z 18011KT 19/14 A2987 RMK A01 T01910143  RH  077%=      5-min Rain = 0
KWOS 241425Z 18010KT 19/14 A2988 RMK A01 T01920143  RH  077%=      5-min Rain = 0
KWOS 241430Z 17010KT 19/14 A2988 RMK A01 T01930144  RH  077%=      5-min Rain = 0
KWOS 241435Z 17011KT 19/14 A2988 RMK A01 T01930144  RH  076%=      5-min Rain = 0
KWOS 241440Z 17010KT 19/15 A2988 RMK A01 T01940147  RH  077%=      5-min Rain = 0
KWOS 241445Z 17010KT 20/15 A2988 RMK A01 T01970148  RH  077%=      5-min Rain = 0
KWOS 241450Z 18012KT 20/15 A2988 RMK A01 T01960148  RH  077%=      5-min Rain = 0
KWOS 241455Z 18012KT 20/15 A2987 RMK A01 T01980149  RH  077%=      5-min Rain = 0
KWOS 241500Z 18011KT 20/15 A2987 RMK A01 T02000152  RH  077%=      5-min Rain = 0
KWOS 241505Z 18012KT 20/15 A2987 RMK A01 T02000151  RH  077%=      5-min Rain = 0
KWOS 241510Z 18011KT 20/15 A2987 RMK A01 T02010153  RH  078%=      5-min Rain = 0
KWOS 241515Z 18012KT 20/16 A2987 RMK A01 T02040155  RH  077%=      5-min Rain = 0
KWOS 241520Z 19013KT 21/16 A2987 RMK A01 T02060157  RH  077%=      5-min Rain = 0
KWOS 241525Z 19013KT 21/16 A2986 RMK A01 T02080157  RH  076%=      5-min Rain = 0
KWOS 241530Z 19014KT 21/16 A2986 RMK A01 T02120162  RH  077%=      5-min Rain = 0
KWOS 241535Z 19014KT 21/16 A2986 RMK A01 T02130159  RH  074%=      5-min Rain = 0
KWOS 241540Z 18014KT 21/16 A2985 RMK A01 T02140158  RH  074%=      5-min Rain = 0
KWOS 241545Z 19014G19KT 22/16 A2985 RMK A01 T02160158  RH  073%=      5-min Rain = 0
KWOS 241550Z 19013KT 22/16 A2985 RMK A01 T02180161  RH  073%=      5-min Rain = 0
KWOS 241555Z 20012G17KT 22/16 A2985 RMK A01 T02180159  RH  072%=      5-min Rain = 0
KWOS 241600Z 19012KT 22/16 A2985 RMK A01 T02210163  RH  073%=      5-min Rain = 0
KWOS 241605Z 19013G18KT 22/16 A2985 RMK A01 T02220161  RH  072%=      5-min Rain = 0
KWOS 241610Z 20012KT 22/16 A2985 RMK A01 T02230160  RH  071%=      5-min Rain = 0
KWOS 241615Z 21012KT 23/16 A2985 RMK A01 T02250161  RH  071%=      5-min Rain = 0
KWOS 241620Z 21013KT 23/16 A2985 RMK A01 T02270162  RH  070%=      5-min Rain = 0
KWOS 241625Z 21012KT 23/16 A2985 RMK A01 T02280163  RH  070%=      5-min Rain = 0
KWOS 241630Z 20012KT 23/16 A2985 RMK A01 T02300161  RH  068%=      5-min Rain = 0
KWOS 241635Z 20010KT 23/16 A2985 RMK A01 T02310162  RH  068%=      5-min Rain = 0
KWOS 241640Z 20009G14KT 23/17 A2985 RMK A01 T02340166  RH  069%=      5-min Rain = 0
KWOS 241645Z 20010KT 24/16 A2985 RMK A01 T02360163  RH  066%=      5-min Rain = 0
KWOS 241650Z 20011KT 24/16 A2985 RMK A01 T02370162  RH  066%=      5-min Rain = 0
KWOS 241655Z 20010G15KT 24/16 A2985 RMK A01 T02390164  RH  066%=      5-min Rain = 0
KWOS 241700Z 20010KT 24/17 A2985 RMK A01 T02420167  RH  066%=      5-min Rain = 0
KWOS 241705Z 21010KT 24/16 A2985 RMK A01 T02430158  RH  062%=      5-min Rain = 0
KWOS 241710Z 19009KT 24/16 A2985 RMK A01 T02430161  RH  063%=      5-min Rain = 0
KWOS 241715Z 19009KT 24/16 A2985 RMK A01 T02440160  RH  062%=      5-min Rain = 0
KWOS 241720Z 19009KT 25/16 A2985 RMK A01 T02460158  RH  061%=      5-min Rain = 0
KWOS 241725Z 20008KT 25/16 A2985 RMK A01 T02480158  RH  060%=      5-min Rain = 0
KWOS 241730Z 19009KT 25/16 A2985 RMK A01 T02500159  RH  060%=      5-min Rain = 0
KWOS 241735Z 19008KT 25/16 A2985 RMK A01 T02500155  RH  058%=      5-min Rain = 0
KWOS 241740Z 18008KT 25/15 A2985 RMK A01 T02520152  RH  056%=      5-min Rain = 0
KWOS 241745Z 18007KT 25/16 A2985 RMK A01 T02530156  RH  058%=      5-min Rain = 0
KWOS 241750Z 19007G13KT 26/16 A2985 RMK A01 T02550164  RH  060%=      5-min Rain = 0
KWOS 241755Z 18007KT 26/16 A2985 RMK A01 T02560159  RH  058%=      5-min Rain = 0
KWOS 241800Z 17008KT 26/16 A2985 RMK A01 T02580160  RH  058%=      5-min Rain = 0
KWOS 241805Z 15008KT 26/16 A2984 RMK A01 T02600164  RH  058%=      5-min Rain = 0
KWOS 241810Z 17008KT 26/17 A2984 RMK A01 T02620166  RH  058%=      5-min Rain = 0
KWOS 241815Z 15007KT 26/16 A2984 RMK A01 T02610155  RH  055%=      5-min Rain = 0
KWOS 241820Z 15010KT 26/16 A2984 RMK A01 T02620164  RH  058%=      5-min Rain = 0
KWOS 241825Z 16010G15KT 26/16 A2983 RMK A01 T02630162  RH  056%=      5-min Rain = 0
KWOS 241830Z 16010G15KT 27/16 A2983 RMK A01 T02650162  RH  056%=      5-min Rain = 0
KWOS 241835Z 16009G14KT 27/17 A2983 RMK A01 T02670165  RH  057%=      5-min Rain = 0
KWOS 241840Z 14011G16KT 27/17 A2983 RMK A01 T02670173  RH  059%=      5-min Rain = 0
KWOS 241845Z 15010KT 27/18 A2983 RMK A01 T02690175  RH  059%=      5-min Rain = 0
KWOS 241850Z 15010KT 27/17 A2983 RMK A01 T02670174  RH  059%=      5-min Rain = 0
KWOS 241855Z 15010KT 27/17 A2982 RMK A01 T02690174  RH  059%=      5-min Rain = 0
KWOS 241900Z 14010KT 27/17 A2982 RMK A01 T02710173  RH  058%=      5-min Rain = 0
KWOS 241905Z 16011G16KT 27/17 A2982 RMK A01 T02730171  RH  057%=      5-min Rain = 0
KWOS 241910Z 15010KT 27/17 A2982 RMK A01 T02730169  RH  055%=      5-min Rain = 0
KWOS 241915Z 16010G15KT 28/17 A2982 RMK A01 T02760174  RH  056%=      5-min Rain = 0
KWOS 241920Z 16011KT 28/17 A2981 RMK A01 T02770169  RH  055%=      5-min Rain = 0
KWOS 241925Z 15011KT 28/18 A2981 RMK A01 T02760176  RH  057%=      5-min Rain = 0
KWOS 241930Z 15010KT 28/18 A2981 RMK A01 T02780177  RH  057%=      5-min Rain = 0
KWOS 241935Z 14011KT 28/17 A2981 RMK A01 T02800173  RH  055%=      5-min Rain = 0
KWOS 241940Z 15011KT 28/18 A298 RMK A01 T02800177  RH  056%=      5-min Rain = 0
KWOS 241945Z 15011G17KT 28/18 A298 RMK A01 T02810175  RH  055%=      5-min Rain = 0
KWOS 241950Z 15012KT 28/17 A2979 RMK A01 T02810170  RH  053%=      5-min Rain = 0
KWOS 241955Z 14012G17KT 28/17 A2979 RMK A01 T02830172  RH  054%=      5-min Rain = 0
KWOS 242000Z 15011G17KT 29/17 A2979 RMK A01 T02850174  RH  054%=      5-min Rain = 0
KWOS 242005Z 15012KT 28/17 A2979 RMK A01 T02840167  RH  052%=      5-min Rain = 0
KWOS 242010Z 14011G16KT 29/17 A2979 RMK A01 T02850167  RH  051%=      5-min Rain = 0
KWOS 242015Z 15012KT 29/16 A2978 RMK A01 T02890162  RH  048%=      5-min Rain = 0
KWOS 242020Z 16013G18KT 29/15 A2978 RMK A01 T02900153  RH  046%=      5-min Rain = 0
KWOS 242025Z 15011KT 29/16 A2978 RMK A01 T02900157  RH  047%=      5-min Rain = 0
KWOS 242030Z 15011G16KT 29/16 A2977 RMK A01 T02920156  RH  046%=      5-min Rain = 0
KWOS 242035Z 14011KT 29/16 A2977 RMK A01 T02940161  RH  047%=      5-min Rain = 0
KWOS 242040Z 14012G17KT 30/16 A2977 RMK A01 T02960158  RH  045%=      5-min Rain = 0
KWOS 242045Z 14011G16KT 29/16 A2976 RMK A01 T02940156  RH  045%=      5-min Rain = 0
KWOS 242050Z 15011G16KT 30/15 A2976 RMK A01 T02970153  RH  043%=      5-min Rain = 0
KWOS 242055Z 16010G16KT 30/15 A2976 RMK A01 T02970148  RH  042%=      5-min Rain = 0
KWOS 242100Z 13010KT 30/15 A2976 RMK A01 T03000153  RH  043%=      5-min Rain = 0
KWOS 242105Z 14014G19KT 30/16 A2975 RMK A01 T03010155  RH  043%=      5-min Rain = 0
KWOS 242110Z 13011KT 30/15 A2975 RMK A01 T03010154  RH  043%=      5-min Rain = 0
KWOS 242115Z 14011KT 30/15 A2974 RMK A01 T03000151  RH  042%=      5-min Rain = 0
KWOS 242120Z 14012G17KT 30/15 A2974 RMK A01 T03010150  RH  042%=      5-min Rain = 0
KWOS 242125Z 13010G15KT 30/15 A2973 RMK A01 T03020149  RH  041%=      5-min Rain = 0
KWOS 242130Z 13010KT 30/15 A2973 RMK A01 T03030145  RH  040%=      5-min Rain = 0
KWOS 242135Z 13011KT 30/14 A2972 RMK A01 T03030140  RH  038%=      5-min Rain = 0
KWOS 242140Z 13014KT 31/14 A2972 RMK A01 T03050141  RH  038%=      5-min Rain = 0
KWOS 242145Z 12011KT 30/14 A2972 RMK A01 T03030140  RH  038%=      5-min Rain = 0
KWOS 242150Z 13011G16KT 30/14 A2971 RMK A01 T03030142  RH  039%=      5-min Rain = 0
KWOS 242155Z 12009G14KT 30/14 A2971 RMK A01 T03000141  RH  040%=      5-min Rain = 0
KWOS 242200Z 12011KT 29/15 A2971 RMK A01 T02930151  RH  044%=      5-min Rain = 0
KWOS 242205Z 12012KT 29/16 A297 RMK A01 T02900160  RH  048%=      5-min Rain = 0
KWOS 242210Z 11012KT 29/16 A2969 RMK A01 T02880163  RH  049%=      5-min Rain = 0
KWOS 242215Z 10011KT 29/16 A2969 RMK A01 T02870160  RH  048%=      5-min Rain = 0
KWOS 242220Z 10014G20KT 29/16 A2969 RMK A01 T02850162  RH  050%=      5-min Rain = 0
KWOS 242225Z 11009G15KT 28/16 A297 RMK A01 T02830163  RH  051%=      5-min Rain = 0
KWOS 242230Z 25012G20KT 28/13 A2972 RMK A01 T02760126  RH  042%=      5-min Rain = 0
KWOS 242235Z 27016KT 26/08 A2972 RMK A01 T02630079  RH  032%=      5-min Rain = 0
KWOS 242240Z 26012G23KT 25/09 A2972 RMK A01 T02530086  RH  036%=      5-min Rain = 0.04
KWOS 242245Z 10009G21KT 25/12 A2971 RMK A01 T02460115  RH  046%=      5-min Rain = 0.08
KWOS 242250Z 10022G28KT 23/10 A2969 RMK A01 T02280104  RH  047%=      5-min Rain = 0.02
KWOS 242255Z 11024G29KT 24/08 A297 RMK A01 T02370081  RH  039%=      5-min Rain = 0.01
KWOS 242300Z 04020G26KT 22/12 A2973 RMK A01 T02210123  RH  056%=      5-min Rain = 0
KWOS 242305Z 02019KT 21/12 A2972 RMK A01 T02110120  RH  058%=      5-min Rain = 0
KWOS 242310Z 03017KT 21/11 A297 RMK A01 T02070111  RH  056%=      5-min Rain = 0
KWOS 242315Z 05018KT 20/12 A2969 RMK A01 T02010116  RH  060%=      5-min Rain = 0
KWOS 242320Z 05017KT 20/12 A2968 RMK A01 T01990116  RH  061%=      5-min Rain = 0
KWOS 242325Z 07015KT 20/11 A2968 RMK A01 T02040113  RH  058%=      5-min Rain = 0
KWOS 242330Z 09015G23KT 20/12 A2969 RMK A01 T01960117  RH  062%=      5-min Rain = 0
KWOS 242335Z 09018G23KT 17/11 A2971 RMK A01 T01660111  RH  072%=      5-min Rain = 0
KWOS 242340Z 08016KT 17/11 A2971 RMK A01 T01660114  RH  074%=      5-min Rain = 0
KWOS 242345Z 10015KT 17/12 A297 RMK A01 T01680117  RH  075%=      5-min Rain = 0
KWOS 242350Z 10015KT 16/12 A297 RMK A01 T01620116  RH  077%=      5-min Rain = 0
KWOS 242355Z 09017G22KT 17/12 A297 RMK A01 T01730115  RH  071%=      5-min Rain = 0
KWOS 250000Z 08017KT 17/12 A297 RMK A01 T01690116  RH  073%=      5-min Rain = 0
KWOS 250005Z 07017G22KT 18/11 A2969 RMK A01 T01790114  RH  068%=      5-min Rain = 0
KWOS 250010Z 07017KT 20/11 A297 RMK A01 T01990112  RH  059%=      5-min Rain = 0
KWOS 250015Z 07016KT 20/11 A2969 RMK A01 T01960113  RH  061%=      5-min Rain = 0
KWOS 250020Z 07016KT 21/11 A2968 RMK A01 T02060108  RH  055%=      5-min Rain = 0
KWOS 250025Z 07016KT 21/10 A2968 RMK A01 T02140101  RH  050%=      5-min Rain = 0
KWOS 250030Z 08016KT 21/11 A2967 RMK A01 T02070106  RH  054%=      5-min Rain = 0
KWOS 250035Z 07016KT 20/11 A2967 RMK A01 T02040105  RH  055%=      5-min Rain = 0
KWOS 250040Z 07015KT 20/11 A2967 RMK A01 T02010107  RH  056%=      5-min Rain = 0
KWOS 250045Z 07014KT 20/11 A2967 RMK A01 T01950114  RH  061%=      5-min Rain = 0
KWOS 250050Z 07014KT 19/11 A2967 RMK A01 T01930113  RH  062%=      5-min Rain = 0
KWOS 250055Z 06015KT 19/11 A2966 RMK A01 T01930112  RH  062%=      5-min Rain = 0
KWOS 250100Z 06014KT 19/11 A2966 RMK A01 T01930112  RH  062%=      5-min Rain = 0
KWOS 250105Z 06015KT 19/11 A2967 RMK A01 T01940114  RH  062%=      5-min Rain = 0
KWOS 250110Z 06016KT 19/11 A2968 RMK A01 T01940113  RH  061%=      5-min Rain = 0
KWOS 250115Z 06016KT 19/11 A2969 RMK A01 T01940113  RH  061%=      5-min Rain = 0
KWOS 250120Z 06016KT 20/11 A297 RMK A01 T01950112  RH  061%=      5-min Rain = 0
KWOS 250125Z 07015KT 19/12 A2971 RMK A01 T01930115  RH  063%=      5-min Rain = 0
KWOS 250130Z 08014G19KT 19/12 A2972 RMK A01 T01910117  RH  065%=      5-min Rain = 0
KWOS 250135Z 09019G26KT 19/12 A2972 RMK A01 T01890116  RH  065%=      5-min Rain = 0
KWOS 250140Z 10015G21KT 18/12 A2972 RMK A01 T01820121  RH  070%=      5-min Rain = 0
KWOS 250145Z 09015G23KT 18/12 A2972 RMK A01 T01810120  RH  070%=      5-min Rain = 0
KWOS 250150Z 08019G24KT 18/12 A2971 RMK A01 T01750123  RH  074%=      5-min Rain = 0
KWOS 250155Z 08019G25KT 17/13 A2972 RMK A01 T01690125  RH  078%=      5-min Rain = 0
KWOS 250200Z 09018G24KT 17/12 A2973 RMK A01 T01680122  RH  077%=      5-min Rain = 0
KWOS 250205Z 10018KT 17/12 A2974 RMK A01 T01680121  RH  076%=      5-min Rain = 0
KWOS 250210Z 09017KT 17/12 A2974 RMK A01 T01690119  RH  075%=      5-min Rain = 0
KWOS 250215Z 10015KT 17/12 A2974 RMK A01 T01710117  RH  074%=      5-min Rain = 0
KWOS 250220Z 10015KT 17/12 A2974 RMK A01 T01710117  RH  073%=      5-min Rain = 0
KWOS 250225Z 10017KT 17/12 A2973 RMK A01 T01710116  RH  073%=      5-min Rain = 0
KWOS 250230Z 10014KT 17/12 A2973 RMK A01 T01720115  RH  072%=      5-min Rain = 0
KWOS 250235Z 11012KT 17/12 A2973 RMK A01 T01700116  RH  073%=      5-min Rain = 0
KWOS 250240Z 09012KT 17/12 A2972 RMK A01 T01690117  RH  074%=      5-min Rain = 0
KWOS 250245Z 09011KT 17/12 A2971 RMK A01 T01680119  RH  076%=      5-min Rain = 0
KWOS 250250Z 09009KT 17/12 A2971 RMK A01 T01670121  RH  077%=      5-min Rain = 0
KWOS 250255Z 13008KT 17/12 A297 RMK A01 T01670122  RH  078%=      5-min Rain = 0
KWOS 250300Z 13007KT 17/12 A2969 RMK A01 T01660121  RH  078%=      5-min Rain = 0
KWOS 250305Z 11007KT 17/12 A297 RMK A01 T01650121  RH  078%=      5-min Rain = 0
KWOS 250310Z 11008KT 16/12 A297 RMK A01 T01640121  RH  079%=      5-min Rain = 0
KWOS 250315Z 14009KT 16/12 A297 RMK A01 T01620122  RH  080%=      5-min Rain = 0
KWOS 250320Z 13008KT 16/12 A297 RMK A01 T01610122  RH  081%=      5-min Rain = 0
KWOS 250325Z 13008KT 16/12 A2971 RMK A01 T01610123  RH  081%=      5-min Rain = 0
KWOS 250330Z 14009KT 16/13 A2971 RMK A01 T01600125  RH  083%=      5-min Rain = 0
KWOS 250335Z 14010KT 16/13 A297 RMK A01 T01600126  RH  083%=      5-min Rain = 0
KWOS 250340Z 15010KT 16/12 A297 RMK A01 T01600124  RH  082%=      5-min Rain = 0
KWOS 250345Z 15010KT 16/12 A2971 RMK A01 T01580123  RH  082%=      5-min Rain = 0
KWOS 250350Z 14008KT 16/12 A2971 RMK A01 T01570122  RH  083%=      5-min Rain = 0
KWOS 250355Z 13008KT 16/12 A2971 RMK A01 T01570122  RH  083%=      5-min Rain = 0
KWOS 250400Z 09007KT 16/12 A2972 RMK A01 T01560124  RH  084%=      5-min Rain = 0
KWOS 250405Z 11008KT 15/13 A2973 RMK A01 T01540125  RH  086%=      5-min Rain = 0
KWOS 250410Z 13009KT 15/13 A2974 RMK A01 T01540125  RH  086%=      5-min Rain = 0
KWOS 250415Z 12008KT 16/12 A2974 RMK A01 T01550124  RH  085%=      5-min Rain = 0
KWOS 250420Z 12009KT 16/13 A2975 RMK A01 T01550125  RH  086%=      5-min Rain = 0
KWOS 250425Z 12010KT 15/13 A2976 RMK A01 T01540125  RH  086%=      5-min Rain = 0
KWOS 250430Z 10010KT 15/12 A2977 RMK A01 T01540123  RH  085%=      5-min Rain = 0
KWOS 250435Z 10010KT 15/12 A2978 RMK A01 T01530124  RH  086%=      5-min Rain = 0
KWOS 250440Z 10011KT 15/12 A2979 RMK A01 T01510124  RH  087%=      5-min Rain = 0
KWOS 250445Z 10012KT 15/12 A2979 RMK A01 T01530124  RH  086%=      5-min Rain = 0
KWOS 250450Z 11012KT 16/12 A298 RMK A01 T01560124  RH  084%=      5-min Rain = 0
KWOS 250455Z 11012KT 16/12 A298 RMK A01 T01580123  RH  083%=      5-min Rain = 0

Page generated in 0.0337 seconds.